createdAt,value
2016-09-11T00:00:01.875Z,0
2016-09-11T00:01:00.525Z,0
2016-09-11T00:01:59.354Z,0
2016-09-11T00:03:01.469Z,0
2016-09-11T00:04:02.234Z,0
2016-09-11T00:05:00.827Z,0
2016-09-11T00:06:02.394Z,0
2016-09-11T00:07:00.548Z,0
2016-09-11T00:08:01.561Z,0
2016-09-11T00:09:00.721Z,0
2016-09-11T00:10:01.922Z,0
2016-09-11T00:11:00.950Z,0
2016-09-11T00:12:01.104Z,0
2016-09-11T00:13:01.399Z,0
2016-09-11T00:14:00.894Z,0
2016-09-11T00:15:03.047Z,0
2016-09-11T00:16:01.706Z,0
2016-09-11T00:17:02.374Z,0
2016-09-11T00:18:01.904Z,0
2016-09-11T00:19:01.295Z,0
2016-09-11T00:20:00.763Z,0
2016-09-11T00:21:02.787Z,0
2016-09-11T00:22:01.556Z,0
2016-09-11T00:23:02.340Z,0
2016-09-11T00:24:02.138Z,0
2016-09-11T00:25:02.247Z,0
2016-09-11T00:26:01.408Z,0
2016-09-11T00:27:01.324Z,0
2016-09-11T00:28:02.351Z,0
2016-09-11T00:29:02.152Z,0
2016-09-11T00:30:02.843Z,0
2016-09-11T00:31:01.096Z,0
2016-09-11T00:32:01.881Z,0
2016-09-11T00:33:02.289Z,0
2016-09-11T00:34:01.547Z,0
2016-09-11T00:35:02.807Z,0
2016-09-11T00:36:01.415Z,0
2016-09-11T00:37:01.695Z,0
2016-09-11T00:38:01.261Z,0
2016-09-11T00:39:01.855Z,0
2016-09-11T00:40:02.216Z,0
2016-09-11T00:41:01.310Z,0
2016-09-11T00:42:02.105Z,0
2016-09-11T00:43:00.944Z,0
2016-09-11T00:44:03.324Z,0
2016-09-11T00:45:03.621Z,0
2016-09-11T00:46:01.649Z,0
2016-09-11T00:47:02.500Z,0
2016-09-11T00:48:02.678Z,0
2016-09-11T00:49:03.797Z,0
2016-09-11T00:50:03.068Z,0
2016-09-11T00:51:03.305Z,0
2016-09-11T00:52:04.411Z,0
2016-09-11T00:53:01.593Z,0
2016-09-11T00:54:02.929Z,0
2016-09-11T00:55:04.988Z,0
2016-09-11T00:56:03.069Z,0
2016-09-11T00:57:01.389Z,0
2016-09-11T00:58:03.093Z,0
2016-09-11T00:59:03.024Z,0
2016-09-11T01:00:02.811Z,0
2016-09-11T01:01:02.219Z,0
2016-09-11T01:02:02.347Z,0
2016-09-11T01:03:03.307Z,0
2016-09-11T01:04:03.774Z,0
2016-09-11T01:05:02.660Z,0
2016-09-11T01:06:03.798Z,0
2016-09-11T01:07:02.954Z,0
2016-09-11T01:08:02.291Z,0
2016-09-11T01:09:03.455Z,0
2016-09-11T01:10:03.948Z,0
2016-09-11T01:11:02.048Z,0
2016-09-11T01:12:02.282Z,0
2016-09-11T01:13:02.125Z,0
2016-09-11T01:14:02.495Z,0
2016-09-11T01:15:02.696Z,0
2016-09-11T01:16:03.336Z,0
2016-09-11T01:17:01.863Z,0
2016-09-11T01:18:02.458Z,0
2016-09-11T01:19:04.466Z,0
2016-09-11T01:20:03.585Z,0
2016-09-11T01:21:03.935Z,0
2016-09-11T01:22:03.556Z,0
2016-09-11T01:23:02.829Z,0
2016-09-11T01:24:03.440Z,0
2016-09-11T01:25:02.347Z,0
2016-09-11T01:26:02.496Z,0
2016-09-11T01:27:03.937Z,0
2016-09-11T01:28:03.854Z,0
2016-09-11T01:29:03.602Z,0
2016-09-11T01:30:02.937Z,0
2016-09-11T01:31:04.383Z,0
2016-09-11T01:32:03.362Z,0
2016-09-11T01:33:03.175Z,0
2016-09-11T01:34:03.190Z,0
2016-09-11T01:35:02.912Z,0
2016-09-11T01:36:02.756Z,0
2016-09-11T01:37:03.969Z,0
2016-09-11T01:38:04.298Z,0
2016-09-11T01:39:03.980Z,0
2016-09-11T01:40:04.938Z,0
2016-09-11T01:41:03.933Z,0
2016-09-11T01:42:03.731Z,0
2016-09-11T01:43:03.215Z,0
2016-09-11T01:44:03.398Z,0
2016-09-11T01:45:03.330Z,0
2016-09-11T01:46:04.619Z,0
2016-09-11T01:47:03.999Z,0
2016-09-11T01:48:03.765Z,0
2016-09-11T01:49:03.906Z,0
2016-09-11T01:50:03.647Z,0
2016-09-11T01:51:03.825Z,0
2016-09-11T01:52:03.651Z,0
2016-09-11T01:53:03.358Z,0
2016-09-11T01:54:05.890Z,0
2016-09-11T01:55:04.124Z,0
2016-09-11T01:56:05.713Z,0
2016-09-11T01:57:05.367Z,0
2016-09-11T01:58:04.098Z,0
2016-09-11T01:59:06.868Z,0
2016-09-11T02:00:04.781Z,0
2016-09-11T02:01:04.759Z,0
2016-09-11T02:02:03.703Z,0
2016-09-11T02:03:03.349Z,0
2016-09-11T02:04:04.837Z,0
2016-09-11T02:05:03.750Z,0
2016-09-11T02:06:03.502Z,0
2016-09-11T02:07:04.185Z,0
2016-09-11T02:08:04.965Z,0
2016-09-11T02:09:03.953Z,0
2016-09-11T02:10:06.737Z,0
2016-09-11T02:11:03.634Z,0
2016-09-11T02:12:05.726Z,0
2016-09-11T02:13:05.258Z,0
2016-09-11T02:14:05.161Z,0
2016-09-11T02:15:05.370Z,0
2016-09-11T02:16:07.483Z,0
2016-09-11T02:17:03.659Z,0
2016-09-11T02:18:04.976Z,0
2016-09-11T02:19:04.529Z,0
2016-09-11T02:20:04.437Z,0
2016-09-11T02:21:03.798Z,0
2016-09-11T02:22:05.304Z,0
2016-09-11T02:23:04.689Z,0
2016-09-11T02:24:04.480Z,0
2016-09-11T02:25:05.355Z,0
2016-09-11T02:26:05.012Z,0
2016-09-11T02:27:04.566Z,0
2016-09-11T02:28:04.762Z,0
2016-09-11T02:29:05.480Z,0
2016-09-11T02:30:05.758Z,0
2016-09-11T02:31:05.698Z,0
2016-09-11T02:32:03.896Z,0
2016-09-11T02:33:04.077Z,0
2016-09-11T02:34:07.373Z,0
2016-09-11T02:35:05.708Z,0
2016-09-11T02:36:04.392Z,0
2016-09-11T02:37:05.452Z,0
2016-09-11T02:38:03.741Z,0
2016-09-11T02:39:04.235Z,0
2016-09-11T02:40:04.835Z,0
2016-09-11T02:41:05.272Z,0
2016-09-11T02:42:06.183Z,0
2016-09-11T02:43:05.628Z,0
2016-09-11T02:44:04.459Z,0
2016-09-11T02:45:04.684Z,0
2016-09-11T02:46:05.080Z,0
2016-09-11T02:47:04.766Z,0
2016-09-11T02:48:04.400Z,0
2016-09-11T02:49:04.369Z,0
2016-09-11T02:50:06.526Z,0
2016-09-11T02:51:04.323Z,0
2016-09-11T02:52:03.942Z,0
2016-09-11T02:53:03.898Z,0
2016-09-11T02:54:05.063Z,0
2016-09-11T02:55:05.327Z,0
2016-09-11T02:56:05.440Z,0
2016-09-11T02:57:05.277Z,0
2016-09-11T02:58:03.956Z,0
2016-09-11T02:59:04.901Z,0
2016-09-11T03:00:04.133Z,0
2016-09-11T03:01:05.388Z,0
2016-09-11T03:02:03.758Z,0
2016-09-11T03:03:04.224Z,0
2016-09-11T03:04:05.193Z,0
2016-09-11T03:05:05.744Z,0
2016-09-11T03:06:06.127Z,0
2016-09-11T03:07:04.974Z,0
2016-09-11T03:08:06.057Z,0
2016-09-11T03:09:05.098Z,0
2016-09-11T03:10:05.888Z,0
2016-09-11T03:11:04.672Z,0
2016-09-11T03:12:04.779Z,0
2016-09-11T03:13:05.230Z,0
2016-09-11T03:14:05.630Z,0
2016-09-11T03:15:04.892Z,0
2016-09-11T03:16:07.102Z,0
2016-09-11T03:17:04.592Z,0
2016-09-11T03:18:06.014Z,0
2016-09-11T03:19:04.746Z,0
2016-09-11T03:20:05.859Z,0
2016-09-11T03:21:04.988Z,0
2016-09-11T03:22:04.855Z,0
2016-09-11T03:23:06.156Z,0
2016-09-11T03:24:04.586Z,0
2016-09-11T03:25:07.529Z,0
2016-09-11T03:26:05.905Z,0
2016-09-11T03:27:06.148Z,0
2016-09-11T03:28:05.783Z,0
2016-09-11T03:29:05.144Z,0
2016-09-11T03:30:05.330Z,0
2016-09-11T03:31:05.492Z,0
2016-09-11T03:32:04.683Z,0
2016-09-11T03:33:06.883Z,0
2016-09-11T03:34:06.024Z,0
2016-09-11T03:35:06.328Z,0
2016-09-11T03:36:06.872Z,0
2016-09-11T03:37:06.234Z,0
2016-09-11T03:38:06.992Z,0
2016-09-11T03:39:06.024Z,0
2016-09-11T03:40:05.804Z,0
2016-09-11T03:41:04.579Z,0
2016-09-11T03:42:08.248Z,0
2016-09-11T03:43:05.218Z,0
2016-09-11T03:44:05.416Z,0
2016-09-11T03:45:06.143Z,0
2016-09-11T03:46:04.780Z,0
2016-09-11T03:47:05.525Z,0
2016-09-11T03:48:06.045Z,0
2016-09-11T03:49:07.440Z,0
2016-09-11T03:50:05.685Z,0
2016-09-11T03:51:05.163Z,0
2016-09-11T03:52:07.412Z,0
2016-09-11T03:53:05.528Z,0
2016-09-11T03:54:07.088Z,0
2016-09-11T03:55:06.084Z,0
2016-09-11T03:56:07.108Z,0
2016-09-11T03:57:08.660Z,0
2016-09-11T03:58:06.612Z,0
2016-09-11T03:59:06.799Z,0
2016-09-11T04:00:06.073Z,0
2016-09-11T04:01:07.055Z,0
2016-09-11T04:02:05.841Z,0
2016-09-11T04:03:06.147Z,0
2016-09-11T04:04:07.334Z,0
2016-09-11T04:05:06.682Z,0
2016-09-11T04:06:05.802Z,0
2016-09-11T04:07:07.362Z,0
2016-09-11T04:08:06.488Z,0
2016-09-11T04:09:07.241Z,0
2016-09-11T04:10:08.005Z,0
2016-09-11T04:11:07.505Z,0
2016-09-11T04:12:07.474Z,0
2016-09-11T04:13:06.099Z,0
2016-09-11T04:14:06.911Z,0
2016-09-11T04:15:07.194Z,0
2016-09-11T04:16:07.503Z,0
2016-09-11T04:17:05.953Z,0
2016-09-11T04:18:07.247Z,0
2016-09-11T04:19:06.599Z,0
2016-09-11T04:20:07.639Z,0
2016-09-11T04:21:07.012Z,0
2016-09-11T04:22:07.120Z,0
2016-09-11T04:23:07.178Z,0
2016-09-11T04:24:06.677Z,0
2016-09-11T04:25:18.743Z,0
2016-09-11T04:26:08.138Z,0
2016-09-11T04:27:08.157Z,0
2016-09-11T04:28:07.100Z,0
2016-09-11T04:29:06.142Z,0
2016-09-11T04:30:06.724Z,0
2016-09-11T04:31:09.071Z,0
2016-09-11T04:32:08.199Z,0
2016-09-11T04:33:08.725Z,0
2016-09-11T04:34:07.013Z,0
2016-09-11T04:35:06.263Z,0
2016-09-11T04:36:08.225Z,0
2016-09-11T04:37:07.233Z,0
2016-09-11T04:38:07.350Z,0
2016-09-11T04:39:07.106Z,0
2016-09-11T04:40:05.853Z,5
2016-09-11T04:41:07.599Z,5
2016-09-11T04:42:06.952Z,5
2016-09-11T04:43:07.134Z,5
2016-09-11T04:44:06.770Z,5
2016-09-11T04:45:06.330Z,5
2016-09-11T04:46:07.621Z,10
2016-09-11T04:47:09.165Z,10
2016-09-11T04:48:06.586Z,10
2016-09-11T04:49:06.514Z,10
2016-09-11T04:50:08.898Z,15
2016-09-11T04:51:07.930Z,15
2016-09-11T04:52:07.247Z,15
2016-09-11T04:53:07.588Z,20
2016-09-11T04:54:07.270Z,20
2016-09-11T04:55:08.806Z,20
2016-09-11T04:56:08.699Z,25
2016-09-11T04:57:08.657Z,25
2016-09-11T04:58:08.609Z,25
2016-09-11T04:59:07.241Z,30
2016-09-11T05:00:08.520Z,30
2016-09-11T05:01:08.138Z,35
2016-09-11T05:02:06.774Z,35
2016-09-11T05:03:09.517Z,40
2016-09-11T05:04:08.128Z,40
2016-09-11T05:05:07.324Z,40
2016-09-11T05:06:07.906Z,45
2016-09-11T05:07:06.901Z,45
2016-09-11T05:08:08.307Z,50
2016-09-11T05:09:07.639Z,55
2016-09-11T05:10:08.323Z,55
2016-09-11T05:11:07.885Z,60
2016-09-11T05:12:08.862Z,60
2016-09-11T05:13:09.046Z,65
2016-09-11T05:14:08.138Z,70
2016-09-11T05:15:08.781Z,70
2016-09-11T05:16:08.733Z,75
2016-09-11T05:17:11.436Z,80
2016-09-11T05:18:08.825Z,80
2016-09-11T05:19:10.536Z,85
2016-09-11T05:20:09.900Z,85
2016-09-11T05:21:08.342Z,90
2016-09-11T05:22:09.439Z,95
2016-09-11T05:23:10.891Z,100
2016-09-11T05:24:08.575Z,100
2016-09-11T05:25:08.597Z,105
2016-09-11T05:26:08.113Z,110
2016-09-11T05:27:07.474Z,115
2016-09-11T05:28:10.642Z,115
2016-09-11T05:29:11.646Z,115
2016-09-11T05:30:08.249Z,120
2016-09-11T05:31:08.674Z,125
2016-09-11T05:32:09.585Z,130
2016-09-11T05:33:10.806Z,130
2016-09-11T05:34:09.314Z,135
2016-09-11T05:35:08.741Z,140
2016-09-11T05:36:08.905Z,140
2016-09-11T05:37:09.220Z,145
2016-09-11T05:38:07.877Z,150
2016-09-11T05:39:10.709Z,155
2016-09-11T05:40:09.154Z,160
2016-09-11T05:41:08.574Z,165
2016-09-11T05:42:09.749Z,165
2016-09-11T05:43:11.002Z,170
2016-09-11T05:44:08.851Z,180
2016-09-11T05:45:09.659Z,185
2016-09-11T05:46:09.450Z,185
2016-09-11T05:47:10.599Z,200
2016-09-11T05:48:08.477Z,205
2016-09-11T05:49:09.519Z,210
2016-09-11T05:50:09.181Z,210
2016-09-11T05:51:09.850Z,215
2016-09-11T05:52:09.076Z,215
2016-09-11T05:53:08.618Z,225
2016-09-11T05:54:11.125Z,220
2016-09-11T05:55:10.546Z,225
2016-09-11T05:56:08.654Z,230
2016-09-11T05:57:08.468Z,230
2016-09-11T05:58:09.474Z,240
2016-09-11T05:59:08.175Z,235
2016-09-11T06:00:09.480Z,240
2016-09-11T06:01:10.217Z,245
2016-09-11T06:02:09.500Z,245
2016-09-11T06:03:08.645Z,250
2016-09-11T06:04:09.801Z,255
2016-09-11T06:05:08.127Z,255
2016-09-11T06:06:10.871Z,260
2016-09-11T06:07:10.910Z,260
2016-09-11T06:08:09.838Z,270
2016-09-11T06:09:10.126Z,280
2016-09-11T06:10:11.714Z,285
2016-09-11T06:11:09.720Z,290
2016-09-11T06:12:10.965Z,300
2016-09-11T06:13:10.012Z,295
2016-09-11T06:14:09.520Z,300
2016-09-11T06:15:09.037Z,305
2016-09-11T06:16:08.971Z,310
2016-09-11T06:17:08.633Z,310
2016-09-11T06:18:10.468Z,320
2016-09-11T06:19:09.718Z,325
2016-09-11T06:20:09.278Z,325
2016-09-11T06:21:09.862Z,330
2016-09-11T06:22:09.615Z,335
2016-09-11T06:23:11.408Z,345
2016-09-11T06:24:09.330Z,350
2016-09-11T06:25:10.955Z,350
2016-09-11T06:26:11.014Z,355
2016-09-11T06:27:09.052Z,355
2016-09-11T06:28:10.781Z,360
2016-09-11T06:29:12.311Z,365
2016-09-11T06:30:09.873Z,370
2016-09-11T06:31:09.582Z,370
2016-09-11T06:32:11.061Z,375
2016-09-11T06:33:10.117Z,380
2016-09-11T06:34:09.873Z,385
2016-09-11T06:35:08.997Z,390
2016-09-11T06:36:09.727Z,395
2016-09-11T06:37:09.533Z,395
2016-09-11T06:38:09.017Z,400
2016-09-11T06:39:10.055Z,405
2016-09-11T06:40:12.128Z,410
2016-09-11T06:41:09.399Z,415
2016-09-11T06:42:09.674Z,415
2016-09-11T06:43:11.617Z,420
2016-09-11T06:44:12.470Z,430
2016-09-11T06:45:10.113Z,435
2016-09-11T06:46:10.183Z,440
2016-09-11T06:47:09.994Z,440
2016-09-11T06:48:10.978Z,445
2016-09-11T06:49:09.968Z,450
2016-09-11T06:50:10.327Z,460
2016-09-11T06:51:10.712Z,465
2016-09-11T06:52:09.367Z,470
2016-09-11T06:53:11.437Z,485
2016-09-11T06:54:09.916Z,485
2016-09-11T06:55:09.949Z,490
2016-09-11T06:56:09.444Z,500
2016-09-11T06:57:10.047Z,505
2016-09-11T06:58:10.259Z,515
2016-09-11T06:59:11.043Z,525
2016-09-11T07:00:13.255Z,530
2016-09-11T07:01:13.807Z,540
2016-09-11T07:02:11.288Z,555
2016-09-11T07:03:12.426Z,565
2016-09-11T07:04:11.269Z,580
2016-09-11T07:05:12.275Z,590
2016-09-11T07:06:10.928Z,610
2016-09-11T07:07:10.254Z,625
2016-09-11T07:08:10.987Z,645
2016-09-11T07:09:11.265Z,655
2016-09-11T07:10:10.540Z,685
2016-09-11T07:11:10.619Z,705
2016-09-11T07:12:11.317Z,680
2016-09-11T07:13:10.933Z,665
2016-09-11T07:14:10.310Z,665
2016-09-11T07:15:13.975Z,670
2016-09-11T07:16:11.795Z,675
2016-09-11T07:17:12.319Z,675
2016-09-11T07:18:10.936Z,660
2016-09-11T07:19:10.334Z,655
2016-09-11T07:20:13.220Z,660
2016-09-11T07:21:10.828Z,650
2016-09-11T07:22:12.607Z,655
2016-09-11T07:23:12.212Z,660
2016-09-11T07:24:12.386Z,645
2016-09-11T07:25:14.161Z,640
2016-09-11T07:26:11.859Z,635
2016-09-11T07:27:12.239Z,635
2016-09-11T07:28:11.067Z,635
2016-09-11T07:29:10.003Z,645
2016-09-11T07:30:13.698Z,645
2016-09-11T07:31:10.926Z,645
2016-09-11T07:32:10.558Z,650
2016-09-11T07:33:10.761Z,655
2016-09-11T07:34:10.786Z,655
2016-09-11T07:35:12.855Z,655
2016-09-11T07:36:10.661Z,655
2016-09-11T07:37:14.511Z,660
2016-09-11T07:38:15.175Z,665
2016-09-11T07:39:12.407Z,665
2016-09-11T07:40:11.662Z,665
2016-09-11T07:41:11.800Z,670
2016-09-11T07:42:13.096Z,675
2016-09-11T07:43:12.908Z,675
2016-09-11T07:44:11.692Z,680
2016-09-11T07:45:13.154Z,680
2016-09-11T07:46:12.165Z,685
2016-09-11T07:47:12.407Z,695
2016-09-11T07:48:11.823Z,700
2016-09-11T07:49:12.945Z,710
2016-09-11T07:50:11.588Z,730
2016-09-11T07:51:11.429Z,745
2016-09-11T07:52:11.717Z,905
2016-09-11T07:53:13.029Z,1185
2016-09-11T07:54:12.729Z,1290
2016-09-11T07:55:14.104Z,1395
2016-09-11T07:56:13.845Z,1390
2016-09-11T07:57:13.607Z,1205
2016-09-11T07:58:13.298Z,1280
2016-09-11T07:59:12.150Z,1445
2016-09-11T08:00:11.458Z,1155
2016-09-11T08:01:13.024Z,985
2016-09-11T08:02:12.533Z,835
2016-09-11T08:03:12.486Z,815
2016-09-11T08:04:12.988Z,810
2016-09-11T08:05:12.785Z,820
2016-09-11T08:06:13.319Z,820
2016-09-11T08:07:12.766Z,820
2016-09-11T08:08:15.093Z,830
2016-09-11T08:09:12.771Z,835
2016-09-11T08:10:11.481Z,860
2016-09-11T08:11:13.685Z,910
2016-09-11T08:12:12.606Z,1085
2016-09-11T08:13:12.404Z,1510
2016-09-11T08:14:13.082Z,1620
2016-09-11T08:15:13.285Z,1480
2016-09-11T08:16:13.842Z,1565
2016-09-11T08:17:15.214Z,1780
2016-09-11T08:18:12.853Z,1725
2016-09-11T08:19:13.897Z,1670
2016-09-11T08:20:13.301Z,1900
2016-09-11T08:21:13.648Z,1945
2016-09-11T08:22:12.751Z,1820
2016-09-11T08:23:12.593Z,1700
2016-09-11T08:24:13.045Z,1825
2016-09-11T08:25:13.402Z,1930
2016-09-11T08:26:14.624Z,1740
2016-09-11T08:27:13.566Z,1700
2016-09-11T08:28:13.684Z,1765
2016-09-11T08:29:14.737Z,1965
2016-09-11T08:30:16.028Z,1935
2016-09-11T08:31:12.798Z,1910
2016-09-11T08:32:12.647Z,1890
2016-09-11T08:33:14.105Z,1930
2016-09-11T08:34:11.600Z,1900
2016-09-11T08:35:13.858Z,1755
2016-09-11T08:36:13.868Z,1775
2016-09-11T08:37:13.879Z,1575
2016-09-11T08:38:13.113Z,1715
2016-09-11T08:39:14.418Z,1660
2016-09-11T08:40:13.408Z,1510
2016-09-11T08:41:16.977Z,1585
2016-09-11T08:42:14.019Z,1575
2016-09-11T08:43:14.661Z,1835
2016-09-11T08:44:13.019Z,1820
2016-09-11T08:45:13.976Z,1860
2016-09-11T08:46:14.354Z,1995
2016-09-11T08:47:14.730Z,1935
2016-09-11T08:48:12.989Z,2015
2016-09-11T08:49:13.083Z,2020
2016-09-11T08:50:14.042Z,2065
2016-09-11T08:51:13.816Z,2025
2016-09-11T08:52:13.466Z,2030
2016-09-11T08:53:12.093Z,2110
2016-09-11T08:54:13.495Z,2035
2016-09-11T08:55:14.473Z,2070
2016-09-11T08:56:15.602Z,2165
2016-09-11T08:57:17.482Z,2235
2016-09-11T08:58:13.447Z,2200
2016-09-11T08:59:14.482Z,2185
2016-09-11T09:00:14.004Z,2155
2016-09-11T09:01:13.607Z,2155
2016-09-11T09:02:12.853Z,2175
2016-09-11T09:03:14.712Z,2225
2016-09-11T09:04:14.303Z,2140
2016-09-11T09:05:15.638Z,2240
2016-09-11T09:06:15.960Z,2295
2016-09-11T09:07:13.945Z,2295
2016-09-11T09:08:14.056Z,2270
2016-09-11T09:09:14.680Z,2265
2016-09-11T09:10:14.193Z,2305
2016-09-11T09:11:14.529Z,2300
2016-09-11T09:12:14.131Z,2315
2016-09-11T09:13:15.610Z,2420
2016-09-11T09:14:16.236Z,2360
2016-09-11T09:15:15.553Z,2355
2016-09-11T09:16:14.615Z,2325
2016-09-11T09:17:14.643Z,2300
2016-09-11T09:18:14.251Z,2145
2016-09-11T09:19:15.989Z,1970
2016-09-11T09:20:13.770Z,1960
2016-09-11T09:21:15.164Z,2055
2016-09-11T09:22:14.496Z,2270
2016-09-11T09:23:14.958Z,2345
2016-09-11T09:24:14.198Z,2180
2016-09-11T09:25:14.304Z,2300
2016-09-11T09:26:15.544Z,2390
2016-09-11T09:27:15.031Z,2460
2016-09-11T09:28:14.817Z,2425
2016-09-11T09:29:15.517Z,2370
2016-09-11T09:30:14.937Z,2295
2016-09-11T09:31:14.418Z,2245
2016-09-11T09:32:14.944Z,2255
2016-09-11T09:33:15.745Z,2320
2016-09-11T09:34:14.562Z,2310
2016-09-11T09:35:14.929Z,2255
2016-09-11T09:36:15.894Z,2215
2016-09-11T09:37:16.487Z,2200
2016-09-11T09:38:15.934Z,2180
2016-09-11T09:39:16.416Z,2095
2016-09-11T09:40:17.392Z,2235
2016-09-11T09:41:16.627Z,2105
2016-09-11T09:42:14.985Z,1635
2016-09-11T09:43:16.259Z,1455
2016-09-11T09:44:16.285Z,1575
2016-09-11T09:45:14.794Z,1625
2016-09-11T09:46:16.236Z,1525
2016-09-11T09:47:15.914Z,1405
2016-09-11T09:48:16.084Z,1415
2016-09-11T09:49:15.816Z,1445
2016-09-11T09:50:15.942Z,1360
2016-09-11T09:51:15.577Z,1390
2016-09-11T09:52:18.692Z,1445
2016-09-11T09:53:15.477Z,1590
2016-09-11T09:54:16.184Z,1605
2016-09-11T09:55:16.427Z,1745
2016-09-11T09:56:15.416Z,1930
2016-09-11T09:57:15.408Z,1915
2016-09-11T09:58:15.785Z,1990
2016-09-11T09:59:16.639Z,2005
2016-09-11T10:00:17.817Z,1940
2016-09-11T10:01:16.107Z,2070
2016-09-11T10:02:17.669Z,2260
2016-09-11T10:03:15.661Z,2135
2016-09-11T10:04:17.282Z,2030
2016-09-11T10:05:14.974Z,2025
2016-09-11T10:06:17.917Z,2055
2016-09-11T10:07:15.728Z,2000
2016-09-11T10:08:14.569Z,2025
2016-09-11T10:09:16.627Z,2035
2016-09-11T10:10:16.028Z,2010
2016-09-11T10:11:18.586Z,2025
2016-09-11T10:12:17.317Z,2045
2016-09-11T10:13:18.770Z,2070
2016-09-11T10:14:17.474Z,2170
2016-09-11T10:15:18.445Z,2085
2016-09-11T10:16:16.973Z,2200
2016-09-11T10:17:18.489Z,2335
2016-09-11T10:18:17.178Z,2315
2016-09-11T10:19:16.224Z,2275
2016-09-11T10:20:16.619Z,2180
2016-09-11T10:21:16.769Z,1910
2016-09-11T10:22:16.150Z,1645
2016-09-11T10:23:17.623Z,1335
2016-09-11T10:24:17.518Z,1380
2016-09-11T10:25:16.287Z,1965
2016-09-11T10:26:16.946Z,1230
2016-09-11T10:27:19.123Z,1200
2016-09-11T10:28:18.295Z,1450
2016-09-11T10:29:16.519Z,1760
2016-09-11T10:30:16.685Z,1655
2016-09-11T10:31:16.819Z,1640
2016-09-11T10:32:16.304Z,1225
2016-09-11T10:33:18.518Z,1900
2016-09-11T10:34:16.486Z,1220
2016-09-11T10:35:17.054Z,2125
2016-09-11T10:36:17.439Z,2160
2016-09-11T10:37:17.943Z,1960
2016-09-11T10:38:17.604Z,1905
2016-09-11T10:39:18.819Z,1960
2016-09-11T10:40:16.873Z,1850
2016-09-11T10:41:16.532Z,1895
2016-09-11T10:42:16.174Z,1880
2016-09-11T10:43:18.907Z,1885
2016-09-11T10:44:17.312Z,1835
2016-09-11T10:45:17.450Z,1885
2016-09-11T10:46:18.265Z,1685
2016-09-11T10:47:16.986Z,1740
2016-09-11T10:48:17.115Z,2170
2016-09-11T10:49:18.902Z,2345
2016-09-11T10:50:20.002Z,2060
2016-09-11T10:51:18.989Z,2160
2016-09-11T10:52:19.701Z,2595
2016-09-11T10:53:17.472Z,2310
2016-09-11T10:54:18.750Z,2320
2016-09-11T10:55:19.341Z,2440
2016-09-11T10:56:17.472Z,2445
2016-09-11T10:57:17.516Z,1295
2016-09-11T10:58:16.929Z,1345
2016-09-11T10:59:19.731Z,1200
2016-09-11T11:00:19.896Z,1140
2016-09-11T11:01:17.309Z,1100
2016-09-11T11:02:20.065Z,1320
2016-09-11T11:03:17.052Z,1615
2016-09-11T11:04:21.534Z,1305
2016-09-11T11:05:18.524Z,1065
2016-09-11T11:06:18.529Z,965
2016-09-11T11:07:19.845Z,915
2016-09-11T11:08:19.111Z,1005
2016-09-11T11:09:17.229Z,1215
2016-09-11T11:10:19.103Z,960
2016-09-11T11:11:18.277Z,1010
2016-09-11T11:12:21.437Z,1055
2016-09-11T11:13:20.210Z,1060
2016-09-11T11:14:20.217Z,1010
2016-09-11T11:15:19.394Z,1085
2016-09-11T11:16:19.227Z,1115
2016-09-11T11:17:19.004Z,1130
2016-09-11T11:18:19.809Z,1150
2016-09-11T11:19:19.232Z,1145
2016-09-11T11:20:18.495Z,1115
2016-09-11T11:21:19.675Z,1110
2016-09-11T11:22:19.746Z,1100
2016-09-11T11:23:18.604Z,1080
2016-09-11T11:24:20.525Z,1055
2016-09-11T11:25:21.029Z,1070
2016-09-11T11:26:19.326Z,1075
2016-09-11T11:27:19.299Z,1045
2016-09-11T11:28:18.816Z,1055
2016-09-11T11:29:18.316Z,1040
2016-09-11T11:30:19.138Z,1015
2016-09-11T11:31:18.888Z,995
2016-09-11T11:32:19.250Z,970
2016-09-11T11:33:20.539Z,970
2016-09-11T11:34:18.365Z,995
2016-09-11T11:35:18.874Z,995
2016-09-11T11:36:19.296Z,1005
2016-09-11T11:37:19.990Z,1005
2016-09-11T11:38:19.557Z,1000
2016-09-11T11:39:22.507Z,995
2016-09-11T11:40:19.687Z,990
2016-09-11T11:41:19.057Z,985
2016-09-11T11:42:21.273Z,975
2016-09-11T11:43:22.029Z,985
2016-09-11T11:44:19.616Z,1000
2016-09-11T11:45:19.265Z,995
2016-09-11T11:46:20.819Z,1000
2016-09-11T11:47:20.123Z,980
2016-09-11T11:48:37.609Z,980
2016-09-11T11:49:19.161Z,975
2016-09-11T11:50:20.162Z,965
2016-09-11T11:51:19.185Z,975
2016-09-11T11:52:20.365Z,975
2016-09-11T11:53:19.977Z,985
2016-09-11T11:54:19.980Z,990
2016-09-11T11:55:19.549Z,1000
2016-09-11T11:56:20.064Z,1000
2016-09-11T11:57:22.419Z,995
2016-09-11T11:58:20.034Z,1010
2016-09-11T11:59:20.149Z,1030
2016-09-11T12:00:20.905Z,1045
2016-09-11T12:01:20.025Z,1065
2016-09-11T12:02:20.035Z,1080
2016-09-11T12:03:20.036Z,1075
2016-09-11T12:04:21.154Z,1075
2016-09-11T12:05:21.512Z,1060
2016-09-11T12:06:20.057Z,1060
2016-09-11T12:07:20.063Z,1060
2016-09-11T12:08:19.855Z,1060
2016-09-11T12:09:22.263Z,1055
2016-09-11T12:10:20.056Z,1055
2016-09-11T12:11:20.579Z,1045
2016-09-11T12:12:22.484Z,1020
2016-09-11T12:13:20.778Z,1020
2016-09-11T12:14:20.944Z,1025
2016-09-11T12:15:22.155Z,1020
2016-09-11T12:16:21.236Z,1000
2016-09-11T12:17:20.683Z,995
2016-09-11T12:18:21.143Z,990
2016-09-11T12:19:20.841Z,990
2016-09-11T12:20:22.474Z,990
2016-09-11T12:21:22.033Z,1005
2016-09-11T12:22:21.899Z,1010
2016-09-11T12:23:21.580Z,1015
2016-09-11T12:24:20.225Z,1010
2016-09-11T12:25:22.172Z,1020
2016-09-11T12:26:21.331Z,990
2016-09-11T12:27:20.952Z,995
2016-09-11T12:28:20.619Z,970
2016-09-11T12:29:20.899Z,970
2016-09-11T12:30:20.893Z,970
2016-09-11T12:31:21.474Z,985
2016-09-11T12:32:22.086Z,985
2016-09-11T12:33:21.010Z,960
2016-09-11T12:34:24.079Z,940
2016-09-11T12:35:21.924Z,925
2016-09-11T12:36:21.377Z,910
2016-09-11T12:37:23.103Z,905
2016-09-11T12:38:21.601Z,885
2016-09-11T12:39:21.945Z,860
2016-09-11T12:40:21.289Z,840
2016-09-11T12:41:21.184Z,845
2016-09-11T12:42:23.194Z,860
2016-09-11T12:43:21.297Z,865
2016-09-11T12:44:22.333Z,885
2016-09-11T12:45:20.921Z,915
2016-09-11T12:46:21.624Z,945
2016-09-11T12:47:22.552Z,905
2016-09-11T12:48:21.524Z,855
2016-09-11T12:49:23.807Z,885
2016-09-11T12:50:21.919Z,920
2016-09-11T12:51:21.213Z,930
2016-09-11T12:52:21.779Z,925
2016-09-11T12:53:21.215Z,930
2016-09-11T12:54:22.731Z,940
2016-09-11T12:55:22.124Z,945
2016-09-11T12:56:23.334Z,935
2016-09-11T12:57:22.884Z,920
2016-09-11T12:58:22.328Z,905
2016-09-11T12:59:24.471Z,895
2016-09-11T13:00:21.966Z,900
2016-09-11T13:01:22.634Z,905
2016-09-11T13:02:21.480Z,910
2016-09-11T13:03:21.943Z,900
2016-09-11T13:04:23.137Z,880
2016-09-11T13:05:23.797Z,875
2016-09-11T13:06:23.418Z,870
2016-09-11T13:07:21.599Z,865
2016-09-11T13:08:21.689Z,860
2016-09-11T13:09:22.995Z,855
2016-09-11T13:10:23.005Z,855
2016-09-11T13:11:23.705Z,860
2016-09-11T13:12:22.393Z,870
2016-09-11T13:13:24.546Z,860
2016-09-11T13:14:24.729Z,865
2016-09-11T13:15:25.035Z,855
2016-09-11T13:16:23.993Z,865
2016-09-11T13:17:22.603Z,865
2016-09-11T13:18:24.546Z,870
2016-09-11T13:19:22.814Z,865
2016-09-11T13:20:22.864Z,860
2016-09-11T13:21:23.160Z,830
2016-09-11T13:22:25.115Z,815
2016-09-11T13:23:22.917Z,810
2016-09-11T13:24:22.456Z,820
2016-09-11T13:25:24.250Z,825
2016-09-11T13:26:23.098Z,825
2016-09-11T13:27:24.316Z,825
2016-09-11T13:28:23.879Z,815
2016-09-11T13:29:24.599Z,805
2016-09-11T13:30:24.497Z,790
2016-09-11T13:31:24.937Z,795
2016-09-11T13:32:23.881Z,790
2016-09-11T13:33:22.465Z,785
2016-09-11T13:34:22.676Z,785
2016-09-11T13:35:22.922Z,775
2016-09-11T13:36:23.995Z,770
2016-09-11T13:37:23.271Z,765
2016-09-11T13:38:22.971Z,765
2016-09-11T13:39:23.272Z,755
2016-09-11T13:40:24.413Z,735
2016-09-11T13:41:25.206Z,735
2016-09-11T13:42:23.912Z,740
2016-09-11T13:43:22.343Z,750
2016-09-11T13:44:23.126Z,745
2016-09-11T13:45:23.926Z,745
2016-09-11T13:46:23.392Z,750
2016-09-11T13:47:23.957Z,750
2016-09-11T13:48:23.754Z,750
2016-09-11T13:49:22.922Z,745
2016-09-11T13:50:23.123Z,735
2016-09-11T13:51:23.552Z,730
2016-09-11T13:52:22.599Z,715
2016-09-11T13:53:23.594Z,705
2016-09-11T13:54:23.670Z,700
2016-09-11T13:55:25.083Z,695
2016-09-11T13:56:24.598Z,700
2016-09-11T13:57:23.447Z,725
2016-09-11T13:58:24.567Z,735